Time;durP1;ratioP1;P1;durP2;ratioP2;P2;SDS_P1;SDS_P2;PMS_P1;PMS_P2;Temp;Humidity;BMP_temperature;BMP_pressure;BME280_temperature;BME280_humidity;BME280_pressure;Samples;Min_cycle;Max_cycle;Signal;HPM_P1;HPM_P2
2024/01/21 00:00:48;;;;;;;11.07;8.60;;;4.60;13.90;;;;;;5067843;28;20056;-77
2024/01/21 00:03:14;;;;;;;9.27;7.60;;;4.70;10.00;;;;;;5068125;28;20048;-78
2024/01/21 00:05:40;;;;;;;11.98;7.82;;;4.70;7.10;;;;;;5050889;28;20481;-77
2024/01/21 00:08:06;;;;;;;9.15;7.25;;;4.70;6.20;;;;;;5066641;28;20062;-76
2024/01/21 00:10:32;;;;;;;10.82;8.35;;;4.70;4.20;;;;;;5051729;28;20032;-77
2024/01/21 00:12:57;;;;;;;10.32;7.25;;;4.70;2.40;;;;;;5050966;28;20040;-76
2024/01/21 00:15:23;;;;;;;9.63;7.30;;;4.70;1.00;;;;;;5051699;28;20380;-75
2024/01/21 00:17:49;;;;;;;11.98;7.50;;;4.70;1.00;;;;;;5064624;28;20079;-75
2024/01/21 00:20:15;;;;;;;9.82;7.63;;;4.70;1.00;;;;;;5034400;28;20056;-75
2024/01/21 00:22:40;;;;;;;9.98;7.45;;;4.70;1.00;;;;;;5084919;28;20445;-77
2024/01/21 00:25:09;;;;;;;10.57;8.20;;;4.70;1.00;;;;;;5051589;28;20036;-75
2024/01/21 00:27:35;;;;;;;12.23;8.30;;;4.60;1.00;;;;;;5050099;28;20048;-76
2024/01/21 00:30:02;;;;;;;13.48;8.77;;;4.60;1.00;;;;;;5065911;28;20033;-75
2024/01/21 00:32:28;;;;;;;11.50;9.23;;;4.60;1.00;;;;;;5067777;28;20040;-74
2024/01/21 00:34:54;;;;;;;12.98;8.15;;;4.60;1.00;;;;;;5050233;28;20043;-74
2024/01/21 00:37:19;;;;;;;12.90;9.82;;;4.70;1.00;;;;;;5065166;28;20480;-76
2024/01/21 00:39:45;;;;;;;12.60;9.88;;;4.50;1.50;;;;;;5064315;28;20040;-76
2024/01/21 00:42:11;;;;;;;13.60;9.85;;;4.50;4.40;;;;;;5051605;28;20572;-75
2024/01/21 00:44:37;;;;;;;15.30;9.88;;;4.50;1.30;;;;;;5036737;28;20044;-75
2024/01/21 00:47:03;;;;;;;13.68;9.70;;;4.50;1.00;;;;;;5070247;28;20076;-79
2024/01/21 00:49:30;;;;;;;13.60;10.10;;;4.50;2.50;;;;;;5051555;28;20121;-76
2024/01/21 00:51:56;;;;;;;12.35;9.00;;;4.40;5.60;;;;;;5036935;28;20723;-75
2024/01/21 00:54:22;;;;;;;14.20;10.30;;;4.40;3.50;;;;;;5053441;28;20055;-75
2024/01/21 00:56:48;;;;;;;12.10;8.93;;;4.40;7.10;;;;;;5070010;28;20508;-74
2024/01/21 00:59:13;;;;;;;11.95;8.75;;;4.40;8.30;;;;;;5036691;28;20044;-77
2024/01/21 01:01:39;;;;;;;13.00;10.05;;;4.30;10.10;;;;;;5065863;28;20032;-77
2024/01/21 01:04:05;;;;;;;15.43;10.68;;;4.30;13.30;;;;;;5070423;28;20036;-74
2024/01/21 01:06:32;;;;;;;14.90;10.82;;;4.30;10.00;;;;;;5070157;28;20504;-75
2024/01/21 01:08:57;;;;;;;11.68;9.20;;;4.40;8.30;;;;;;5050849;28;20056;-77
2024/01/21 01:11:24;;;;;;;12.30;9.60;;;4.40;8.00;;;;;;5069937;28;20037;-74
2024/01/21 01:13:51;;;;;;;13.30;9.15;;;4.40;8.90;;;;;;5069439;28;20496;-74
2024/01/21 01:16:17;;;;;;;12.80;9.55;;;4.40;6.80;;;;;;5053271;28;20033;-75
2024/01/21 01:18:43;;;;;;;13.40;10.27;;;4.40;7.60;;;;;;5070002;28;20056;-74
2024/01/21 01:21:12;;;;;;;13.07;9.93;;;4.40;1.00;;;;;;5069326;28;20047;-76
2024/01/21 01:23:38;;;;;;;12.73;9.27;;;4.40;1.00;;;;;;5070188;28;20040;-74
2024/01/21 01:26:03;;;;;;;13.98;10.35;;;4.40;1.00;;;;;;5070561;28;20060;-77
2024/01/21 01:28:31;;;;;;;13.18;9.70;;;4.40;3.50;;;;;;5069997;28;20040;-75
2024/01/21 01:30:57;;;;;;;12.80;9.43;;;4.40;5.30;;;;;;5049048;28;20040;-76
2024/01/21 01:33:22;;;;;;;11.48;8.95;;;4.40;9.40;;;;;;5068035;28;20039;-76
2024/01/21 01:35:48;;;;;;;11.32;9.05;;;4.50;1.00;;;;;;5069781;28;20040;-77
2024/01/21 01:38:14;;;;;;;11.90;9.60;;;5.00;1.00;;;;;;5034980;28;20045;-74
2024/01/21 01:40:39;;;;;;;11.75;8.68;;;4.50;1.00;;;;;;5068868;28;20052;-76
2024/01/21 01:43:05;;;;;;;10.52;8.20;;;4.50;1.00;;;;;;5052482;28;20493;-75
2024/01/21 01:45:31;;;;;;;11.57;8.65;;;4.70;1.00;;;;;;5053158;28;20036;-74
2024/01/21 01:47:57;;;;;;;9.65;7.18;;;4.70;1.00;;;;;;5052554;28;20051;-75
2024/01/21 01:50:24;;;;;;;11.00;7.55;;;4.80;1.00;;;;;;5050873;28;20043;-75
2024/01/21 01:52:51;;;;;;;9.25;6.68;;;4.90;1.00;;;;;;5068988;28;20048;-75
2024/01/21 01:55:18;;;;;;;9.65;7.32;;;4.80;1.00;;;;;;5052212;28;20079;-77
2024/01/21 01:57:47;;;;;;;11.23;7.57;;;4.80;1.00;;;;;;5035657;28;20040;-76
2024/01/21 02:00:14;;;;;;;12.93;7.88;;;4.90;1.00;;;;;;5066700;28;20120;-75
2024/01/21 02:02:43;;;;;;;9.32;7.20;;;4.80;1.00;;;;;;5067894;28;20185;-74
2024/01/21 02:05:10;;;;;;;9.77;7.13;;;4.90;1.00;;;;;;5068835;28;20094;-75
2024/01/21 02:07:35;;;;;;;10.95;7.30;;;4.90;1.00;;;;;;5069089;28;20036;-76
2024/01/21 02:10:01;;;;;;;9.57;6.85;;;4.80;1.00;;;;;;5068841;28;20037;-74
2024/01/21 02:12:28;;;;;;;10.32;6.78;;;4.90;1.00;;;;;;5047964;28;20051;-74
2024/01/21 02:14:54;;;;;;;10.57;6.55;;;4.90;1.00;;;;;;5052297;28;20342;-75
2024/01/21 02:17:19;;;;;;;8.40;6.20;;;4.90;1.00;;;;;;5068953;28;20102;-77
2024/01/21 02:19:45;;;;;;;10.45;6.88;;;4.90;1.00;;;;;;5052111;28;20051;-74
2024/01/21 02:22:12;;;;;;;10.65;6.75;;;4.90;1.00;;;;;;5066013;28;20037;-76
2024/01/21 02:24:38;;;;;;;9.68;6.25;;;4.90;1.00;;;;;;5068574;28;20083;-76
2024/01/21 02:27:04;;;;;;;10.50;6.82;;;4.90;1.00;;;;;;5051391;28;20067;-76
2024/01/21 02:29:30;;;;;;;9.50;6.57;;;4.80;1.00;;;;;;5068772;28;20088;-77
2024/01/21 02:31:57;;;;;;;7.63;5.68;;;4.80;1.00;;;;;;5066092;28;20132;-74
2024/01/21 02:34:23;;;;;;;8.15;5.30;;;4.80;1.00;;;;;;5051866;28;20078;-75
2024/01/21 02:36:49;;;;;;;9.65;6.05;;;4.80;1.00;;;;;;5068683;28;20035;-76
2024/01/21 02:39:15;;;;;;;10.38;5.85;;;4.80;1.00;;;;;;5051771;28;20048;-76
2024/01/21 02:41:40;;;;;;;8.93;6.13;;;4.80;1.00;;;;;;5049940;28;20078;-75
2024/01/21 02:44:06;;;;;;;8.07;5.55;;;4.80;1.00;;;;;;5067695;28;20040;-74
2024/01/21 02:46:32;;;;;;;8.00;4.95;;;4.80;1.00;;;;;;5052491;28;20523;-74
2024/01/21 02:48:57;;;;;;;8.85;6.28;;;4.80;1.00;;;;;;5050723;28;20064;-73
2024/01/21 02:51:23;;;;;;;7.82;6.20;;;5.00;1.00;;;;;;5064301;28;20167;-75
2024/01/21 02:53:50;;;;;;;7.00;4.75;;;4.90;1.00;;;;;;5067047;28;20106;-76
2024/01/21 02:56:23;;;;;;;8.27;5.43;;;4.90;1.00;;;;;;5067256;28;20032;-74
2024/01/21 02:58:53;;;;;;;7.60;4.85;;;4.90;1.00;;;;;;5089904;28;20728;-74
2024/01/21 03:01:19;;;;;;;7.60;5.15;;;4.90;1.00;;;;;;5066659;28;20115;-75
2024/01/21 03:03:45;;;;;;;9.10;5.57;;;5.10;1.00;;;;;;5040958;28;20493;-74
2024/01/21 03:06:12;;;;;;;7.50;4.55;;;4.90;1.00;;;;;;5067594;28;20094;-75
2024/01/21 03:08:37;;;;;;;6.95;4.78;;;4.90;1.00;;;;;;5051360;28;20037;-74
2024/01/21 03:11:04;;;;;;;7.20;4.35;;;5.00;1.00;;;;;;5066907;28;20652;-74
2024/01/21 03:13:29;;;;;;;7.05;4.53;;;5.00;1.00;;;;;;5066038;28;20066;-75
2024/01/21 03:15:55;;;;;;;6.80;4.45;;;4.90;99.90;;;;;;5050277;28;20044;-74
2024/01/21 03:18:21;;;;;;;7.63;5.00;;;5.00;99.90;;;;;;5067746;28;20071;-74
2024/01/21 03:20:47;;;;;;;5.03;4.10;;;5.00;99.90;;;;;;5050935;28;20043;-74
2024/01/21 03:23:13;;;;;;;7.07;4.18;;;5.00;99.90;;;;;;5050143;28;20028;-77
2024/01/21 03:25:39;;;;;;;6.72;4.53;;;5.00;99.90;;;;;;5050947;28;20055;-76
2024/01/21 03:28:05;;;;;;;5.15;3.70;;;5.10;99.90;;;;;;5050528;28;20048;-75
2024/01/21 03:30:31;;;;;;;5.78;4.53;;;5.00;99.90;;;;;;5068220;28;20580;-75
2024/01/21 03:32:57;;;;;;;5.05;3.70;;;5.00;99.90;;;;;;5066813;28;20048;-74
2024/01/21 03:35:22;;;;;;;5.93;3.47;;;5.10;99.90;;;;;;5061137;28;20032;-77
2024/01/21 03:37:48;;;;;;;6.03;4.05;;;5.10;99.90;;;;;;5066102;28;20052;-74
2024/01/21 03:40:14;;;;;;;5.70;3.42;;;5.10;99.90;;;;;;5050266;28;20041;-73
2024/01/21 03:42:40;;;;;;;4.45;3.60;;;5.00;99.90;;;;;;5034832;28;20097;-73
2024/01/21 03:45:06;;;;;;;4.97;3.35;;;5.10;99.90;;;;;;5033679;28;20064;-76
2024/01/21 03:47:31;;;;;;;4.13;3.20;;;5.00;99.90;;;;;;5067173;28;20113;-76
2024/01/21 03:49:58;;;;;;;4.40;3.30;;;5.00;99.90;;;;;;5050754;28;20510;-76
2024/01/21 03:52:23;;;;;;;4.72;3.25;;;5.00;99.90;;;;;;5050235;28;20028;-74
2024/01/21 03:54:49;;;;;;;3.53;2.83;;;4.80;99.90;;;;;;5049907;28;20089;-76
2024/01/21 03:57:15;;;;;;;4.15;2.97;;;4.80;99.90;;;;;;5033817;28;20159;-76
2024/01/21 03:59:40;;;;;;;4.03;2.88;;;4.90;99.90;;;;;;5033574;28;20048;-76
2024/01/21 04:02:06;;;;;;;4.13;3.10;;;4.80;99.90;;;;;;5050490;28;20040;-77
2024/01/21 04:04:32;;;;;;;4.10;2.90;;;4.80;99.90;;;;;;5017775;28;20122;-78
2024/01/21 04:06:58;;;;;;;3.75;2.70;;;4.80;99.90;;;;;;5017461;28;20040;-77
2024/01/21 04:09:23;;;;;;;3.60;2.70;;;4.70;99.90;;;;;;5050995;28;20036;-75
2024/01/21 04:11:49;;;;;;;4.43;2.85;;;4.80;99.90;;;;;;5067045;28;20048;-75
2024/01/21 04:14:15;;;;;;;3.05;2.40;;;4.80;99.90;;;;;;5035047;28;20093;-77
2024/01/21 04:16:41;;;;;;;4.38;2.70;;;4.90;99.90;;;;;;5053185;28;20040;-75
2024/01/21 04:19:07;;;;;;;4.32;2.45;;;4.80;99.90;;;;;;5070689;28;20052;-77
2024/01/21 04:21:33;;;;;;;3.58;2.53;;;4.90;99.90;;;;;;5054727;28;20131;-74
2024/01/21 04:24:02;;;;;;;4.22;2.90;;;5.00;99.90;;;;;;5071810;28;20700;-75
2024/01/21 04:26:28;;;;;;;3.90;2.70;;;5.40;99.90;;;;;;5070275;28;20072;-75
2024/01/21 04:28:54;;;;;;;4.38;2.60;;;4.80;99.90;;;;;;5070725;28;20413;-74
2024/01/21 04:31:20;;;;;;;3.50;2.65;;;5.00;99.90;;;;;;5034446;28;20052;-75
2024/01/21 04:33:46;;;;;;;3.78;2.50;;;4.90;99.90;;;;;;5057572;28;20040;-76
2024/01/21 04:36:19;;;;;;;2.70;2.20;;;4.90;99.90;;;;;;5065461;28;20051;-76
2024/01/21 04:38:45;;;;;;;3.67;2.60;;;4.90;99.90;;;;;;5070285;28;20374;-75
2024/01/21 04:41:15;;;;;;;5.07;2.00;;;4.90;99.90;;;;;;5069603;28;20045;-74
2024/01/21 04:43:42;;;;;;;4.82;2.67;;;4.90;99.90;;;;;;5035236;28;20506;-74
2024/01/21 04:46:08;;;;;;;6.35;2.30;;;4.80;99.90;;;;;;5069763;28;20386;-74
2024/01/21 04:48:34;;;;;;;4.15;2.30;;;5.00;99.90;;;;;;5020479;28;20040;-76
2024/01/21 04:50:59;;;;;;;4.43;2.20;;;5.10;99.90;;;;;;5070990;28;20040;-74
2024/01/21 04:53:25;;;;;;;2.95;1.90;;;5.30;99.90;;;;;;5053953;28;20548;-73
2024/01/21 04:55:51;;;;;;;2.92;2.10;;;5.30;99.90;;;;;;5070190;28;20362;-75
2024/01/21 04:58:16;;;;;;;4.15;2.20;;;5.00;99.90;;;;;;5052201;28;20378;-74
2024/01/21 05:00:42;;;;;;;4.72;2.47;;;5.20;99.90;;;;;;5054451;28;20040;-76
2024/01/21 05:03:08;;;;;;;3.15;1.95;;;5.10;99.90;;;;;;5070214;28;20152;-74
2024/01/21 05:05:34;;;;;;;3.20;2.40;;;5.20;99.90;;;;;;5053993;28;20032;-73
2024/01/21 05:08:00;;;;;;;3.25;2.08;;;5.20;99.90;;;;;;5061917;28;20044;-75
2024/01/21 05:10:26;;;;;;;3.28;2.40;;;5.20;99.90;;;;;;5053665;28;20048;-75
2024/01/21 05:12:51;;;;;;;2.35;1.65;;;5.50;99.90;;;;;;5053876;28;20493;-74
2024/01/21 05:15:17;;;;;;;2.95;2.08;;;5.20;99.90;;;;;;5069156;28;20032;-73
2024/01/21 05:17:43;;;;;;;3.50;2.20;;;5.30;99.90;;;;;;5030424;28;20094;-74
2024/01/21 05:20:09;;;;;;;3.22;2.55;;;5.20;99.90;;;;;;5053178;28;20044;-75
2024/01/21 05:22:37;;;;;;;3.20;2.10;;;5.30;1.00;;;;;;5053043;28;20051;-75
2024/01/21 05:25:04;;;;;;;2.90;2.08;;;5.50;1.00;;;;;;5069246;28;20076;-74
2024/01/21 05:27:31;;;;;;;4.30;2.40;;;5.20;1.00;;;;;;5051857;28;20732;-75
2024/01/21 05:29:57;;;;;;;2.45;1.95;;;5.40;1.00;;;;;;5070205;28;20087;-74
2024/01/21 05:32:22;;;;;;;3.22;2.65;;;5.20;1.00;;;;;;5052952;28;20139;-75
2024/01/21 05:34:48;;;;;;;4.63;2.55;;;5.40;1.00;;;;;;5053349;28;20032;-75
2024/01/21 05:37:13;;;;;;;4.25;2.17;;;5.20;1.00;;;;;;5068138;28;20373;-74
2024/01/21 05:39:39;;;;;;;3.65;2.22;;;5.20;1.00;;;;;;5033642;28;20091;-77
2024/01/21 05:42:07;;;;;;;4.75;2.92;;;5.10;1.00;;;;;;5070808;28;20052;-76
2024/01/21 05:44:33;;;;;;;2.95;2.17;;;5.20;1.00;;;;;;5069537;28;20043;-76
2024/01/21 05:46:59;;;;;;;3.80;2.25;;;5.20;1.00;;;;;;5052676;28;20532;-77
2024/01/21 05:49:25;;;;;;;4.50;2.58;;;5.20;1.00;;;;;;5067778;28;20068;-75
2024/01/21 05:51:51;;;;;;;3.28;1.90;;;5.20;1.00;;;;;;5052078;28;20068;-74
2024/01/21 05:54:18;;;;;;;3.03;2.33;;;5.20;1.00;;;;;;5052848;28;20185;-76
2024/01/21 05:56:44;;;;;;;4.35;3.13;;;5.20;1.00;;;;;;5052253;28;20040;-76
2024/01/21 05:59:09;;;;;;;3.33;2.10;;;5.10;1.00;;;;;;5049677;28;20040;-76
2024/01/21 06:01:35;;;;;;;4.85;2.90;;;5.20;1.00;;;;;;5069019;28;20094;-74
2024/01/21 06:04:01;;;;;;;3.97;2.65;;;5.10;1.00;;;;;;5052408;28;20549;-76
2024/01/21 06:06:27;;;;;;;4.20;2.92;;;5.20;1.00;;;;;;5035803;28;20109;-75
2024/01/21 06:08:52;;;;;;;4.20;3.55;;;5.20;1.00;;;;;;5065788;28;20067;-74
2024/01/21 06:11:19;;;;;;;3.35;2.50;;;5.40;1.00;;;;;;5048692;28;20028;-74
2024/01/21 06:13:45;;;;;;;4.28;3.08;;;5.20;1.00;;;;;;5019498;28;20040;-75
2024/01/21 06:16:16;;;;;;;3.38;3.05;;;5.20;1.00;;;;;;5051348;28;20028;-74
2024/01/21 06:18:42;;;;;;;5.20;3.60;;;5.20;1.00;;;;;;5050856;28;20060;-74
2024/01/21 06:21:07;;;;;;;5.15;3.10;;;5.30;1.00;;;;;;5067700;28;20114;-74
2024/01/21 06:23:33;;;;;;;4.65;3.08;;;5.40;1.00;;;;;;5049733;28;20110;-74
2024/01/21 06:25:59;;;;;;;6.47;3.35;;;5.20;1.00;;;;;;5069000;28;20043;-75
2024/01/21 06:28:25;;;;;;;5.35;3.28;;;5.20;1.00;;;;;;5068094;28;20048;-73
2024/01/21 06:30:50;;;;;;;4.72;3.58;;;5.20;1.00;;;;;;5066815;28;20047;-76
2024/01/21 06:33:16;;;;;;;4.30;3.80;;;5.30;1.00;;;;;;5068067;28;20033;-73
2024/01/21 06:35:42;;;;;;;6.90;4.15;;;5.30;1.00;;;;;;5068589;28;20097;-73
2024/01/21 06:38:07;;;;;;;5.32;4.00;;;5.40;1.00;;;;;;5050624;28;20044;-74
2024/01/21 06:40:33;;;;;;;4.78;3.50;;;5.20;1.00;;;;;;5060412;28;20043;-73
2024/01/21 06:42:59;;;;;;;4.70;3.90;;;5.20;1.00;;;;;;5058196;28;20072;-74
2024/01/21 06:45:26;;;;;;;4.80;2.95;;;5.10;1.00;;;;;;5044045;28;20040;-74
2024/01/21 06:47:51;;;;;;;5.32;3.88;;;5.20;1.00;;;;;;5068123;28;20048;-72
2024/01/21 06:50:17;;;;;;;8.20;4.25;;;5.30;1.00;;;;;;5047911;28;20029;-73
2024/01/21 06:52:43;;;;;;;6.47;4.18;;;5.10;1.00;;;;;;5050677;28;20075;-73
2024/01/21 06:55:09;;;;;;;6.40;4.50;;;5.60;1.00;;;;;;5050977;28;20040;-75
2024/01/21 06:57:34;;;;;;;6.50;3.95;;;5.20;1.00;;;;;;5051370;28;20040;-73
2024/01/21 07:00:02;;;;;;;6.00;4.28;;;5.20;1.00;;;;;;5050749;28;20093;-73
2024/01/21 07:02:27;;;;;;;5.75;4.30;;;5.10;1.00;;;;;;5084439;28;20125;-74
2024/01/21 07:04:53;;;;;;;6.30;4.30;;;5.20;1.00;;;;;;5051808;28;20520;-74
2024/01/21 07:07:18;;;;;;;4.97;4.32;;;5.10;1.00;;;;;;5067218;28;20473;-72
2024/01/21 07:09:44;;;;;;;6.80;4.32;;;5.10;1.00;;;;;;5051030;28;20035;-72
2024/01/21 07:12:10;;;;;;;6.30;4.70;;;5.10;1.00;;;;;;5044462;28;20048;-75
2024/01/21 07:14:36;;;;;;;8.07;5.30;;;5.30;1.00;;;;;;5050954;28;20040;-73
2024/01/21 07:17:03;;;;;;;6.47;4.78;;;5.20;1.00;;;;;;5068030;28;20107;-74
2024/01/21 07:19:29;;;;;;;6.82;5.13;;;5.10;1.00;;;;;;5067841;28;20408;-72
2024/01/21 07:21:54;;;;;;;7.63;5.18;;;5.10;1.00;;;;;;5061845;28;20052;-73
2024/01/21 07:24:20;;;;;;;11.63;5.50;;;5.20;1.00;;;;;;5050657;28;20044;-72
2024/01/21 07:26:46;;;;;;;6.38;5.43;;;5.10;1.00;;;;;;5067683;28;20094;-74
2024/01/21 07:29:13;;;;;;;6.85;5.28;;;5.20;1.00;;;;;;5050596;28;20051;-73
2024/01/21 07:31:39;;;;;;;6.78;5.28;;;5.10;1.00;;;;;;5064546;28;20041;-72
2024/01/21 07:34:09;;;;;;;7.60;5.25;;;5.30;1.00;;;;;;5050772;28;20037;-72
2024/01/21 07:36:35;;;;;;;5.65;4.70;;;5.30;1.00;;;;;;5051505;28;20040;-75
2024/01/21 07:39:04;;;;;;;7.13;5.68;;;5.20;1.00;;;;;;5051383;28;20119;-72
2024/01/21 07:41:30;;;;;;;6.78;5.32;;;5.20;1.00;;;;;;5066433;28;20033;-74
2024/01/21 07:43:57;;;;;;;7.70;5.55;;;5.10;1.00;;;;;;5066690;28;20032;-73
2024/01/21 07:46:22;;;;;;;8.32;5.88;;;5.10;1.00;;;;;;5049418;28;20032;-74
2024/01/21 07:48:48;;;;;;;8.68;5.88;;;5.00;1.00;;;;;;5033057;28;20043;-75
2024/01/21 07:51:16;;;;;;;7.65;5.80;;;5.10;1.00;;;;;;5036732;28;20055;-75
2024/01/21 07:53:42;;;;;;;9.82;5.78;;;5.10;1.00;;;;;;5050916;28;20116;-75
2024/01/21 07:56:08;;;;;;;8.95;5.55;;;5.10;1.00;;;;;;5054086;28;20119;-74
2024/01/21 07:58:33;;;;;;;8.65;6.30;;;5.10;1.00;;;;;;5053298;28;20198;-73
2024/01/21 08:00:59;;;;;;;7.50;5.68;;;5.00;1.00;;;;;;5053763;28;20067;-73
2024/01/21 08:03:25;;;;;;;7.53;6.72;;;5.00;1.00;;;;;;5050498;28;20040;-75
2024/01/21 08:05:50;;;;;;;7.13;5.88;;;6.10;1.00;;;;;;5052304;28;20082;-74
2024/01/21 08:08:16;;;;;;;7.53;6.72;;;5.00;1.20;;;;;;5070350;28;20040;-73
2024/01/21 08:10:42;;;;;;;10.10;7.18;;;5.00;1.00;;;;;;5054626;28;20045;-74
2024/01/21 08:13:07;;;;;;;9.90;5.90;;;5.10;1.60;;;;;;5067694;28;20115;-74
2024/01/21 08:15:33;;;;;;;7.65;6.20;;;5.10;2.90;;;;;;5069637;28;20036;-73
2024/01/21 08:17:59;;;;;;;17.35;7.32;;;5.20;1.00;;;;;;5052484;28;20459;-74
2024/01/21 08:20:25;;;;;;;7.57;5.75;;;5.00;2.00;;;;;;5069318;28;20542;-78
2024/01/21 08:22:51;;;;;;;9.18;6.03;;;5.00;1.30;;;;;;5046717;28;20052;-76
2024/01/21 08:25:16;;;;;;;7.80;6.03;;;5.10;1.00;;;;;;5050701;28;20182;-73
2024/01/21 08:27:42;;;;;;;8.23;6.28;;;5.10;3.60;;;;;;5053046;28;20087;-76
2024/01/21 08:30:09;;;;;;;9.82;6.05;;;5.40;1.80;;;;;;5052834;28;20438;-74
2024/01/21 08:32:35;;;;;;;7.95;6.15;;;5.20;1.00;;;;;;5036481;28;20037;-74
2024/01/21 08:35:00;;;;;;;7.03;6.15;;;5.20;1.50;;;;;;5049856;28;20370;-74
2024/01/21 08:37:26;;;;;;;7.68;5.80;;;5.20;4.00;;;;;;5049550;28;20040;-75
2024/01/21 08:39:52;;;;;;;7.25;5.75;;;5.20;3.00;;;;;;5052061;28;20091;-73
2024/01/21 08:42:19;;;;;;;8.32;5.75;;;5.20;3.70;;;;;;5052648;28;20093;-76
2024/01/21 08:44:45;;;;;;;11.18;5.95;;;5.20;4.70;;;;;;5067594;28;20123;-77
2024/01/21 08:47:11;;;;;;;7.88;6.18;;;5.30;5.20;;;;;;5041940;28;20175;-71
2024/01/21 08:49:36;;;;;;;7.45;6.35;;;5.60;4.30;;;;;;5048597;28;20048;-76
2024/01/21 08:52:02;;;;;;;6.95;5.30;;;5.30;10.00;;;;;;5054338;28;20088;-78
2024/01/21 08:54:28;;;;;;;10.63;5.93;;;5.20;10.00;;;;;;5049252;28;20048;-76
2024/01/21 08:56:54;;;;;;;8.48;6.10;;;5.20;15.20;;;;;;5065821;28;20191;-78
2024/01/21 08:59:19;;;;;;;8.63;6.03;;;5.20;18.70;;;;;;5051928;28;20123;-77
2024/01/21 09:01:45;;;;;;;8.18;5.70;;;5.20;15.70;;;;;;5035184;28;20044;-76
2024/01/21 09:04:11;;;;;;;8.63;5.82;;;5.40;19.10;;;;;;5068696;28;20048;-76
2024/01/21 09:06:41;;;;;;;7.32;5.88;;;5.40;16.40;;;;;;5050323;28;20131;-77
2024/01/21 09:09:11;;;;;;;7.70;5.90;;;5.50;19.00;;;;;;5037036;28;20762;-75
2024/01/21 09:11:38;;;;;;;8.32;6.25;;;5.50;19.80;;;;;;5020224;28;20033;-78
2024/01/21 09:14:05;;;;;;;11.85;6.43;;;5.40;20.10;;;;;;5068503;28;20040;-77
2024/01/21 09:16:31;;;;;;;6.95;5.88;;;5.40;20.80;;;;;;5049744;28;20417;-77
2024/01/21 09:18:56;;;;;;;8.45;6.45;;;5.40;25.20;;;;;;5032538;28;20083;-77
2024/01/21 09:21:22;;;;;;;9.73;6.07;;;5.40;46.10;;;;;;5073917;28;20159;-77
2024/01/21 09:23:48;;;;;;;8.68;6.20;;;5.40;61.60;;;;;;5052480;28;20055;-77
2024/01/21 09:26:13;;;;;;;8.32;6.30;;;5.50;49.90;;;;;;5067901;28;20047;-75
2024/01/21 09:28:39;;;;;;;8.07;6.10;;;5.60;57.10;;;;;;5051877;28;20060;-74
2024/01/21 09:31:04;;;;;;;8.45;6.20;;;5.70;57.40;;;;;;5036179;28;20033;-75
2024/01/21 09:33:30;;;;;;;8.35;6.57;;;5.80;47.10;;;;;;5051570;28;20036;-75
2024/01/21 09:35:56;;;;;;;8.15;6.22;;;5.70;56.80;;;;;;5067961;28;20091;-74
2024/01/21 09:38:22;;;;;;;8.77;6.93;;;5.70;53.20;;;;;;5068520;28;20048;-75
2024/01/21 09:41:04;;;;;;;7.65;6.20;;;5.80;56.10;;;;;;5052287;28;20071;-75
2024/01/21 09:43:33;;;;;;;9.18;6.95;;;5.80;56.90;;;;;;5068311;28;20048;-75
2024/01/21 09:46:00;;;;;;;8.27;6.68;;;5.80;70.00;;;;;;5067914;28;20123;-74
2024/01/21 09:48:27;;;;;;;8.30;7.28;;;5.80;69.40;;;;;;5051163;28;20119;-75
2024/01/21 09:50:56;;;;;;;11.55;7.18;;;5.90;71.60;;;;;;5087194;28;20358;-75
2024/01/21 09:53:22;;;;;;;7.72;6.10;;;5.90;69.90;;;;;;5071524;28;20044;-75
2024/01/21 09:55:55;;;;;;;8.85;7.55;;;5.90;77.60;;;;;;5052393;28;20366;-76
2024/01/21 09:58:23;;;;;;;8.75;6.85;;;5.90;74.10;;;;;;5044353;28;20044;-74
2024/01/21 10:00:52;;;;;;;8.85;7.30;;;5.90;76.20;;;;;;5052016;28;20552;-75
2024/01/21 10:03:18;;;;;;;8.02;6.72;;;5.90;84.80;;;;;;5017115;28;20106;-75
2024/01/21 10:05:44;;;;;;;8.75;7.53;;;6.10;91.00;;;;;;5050199;28;20032;-74
2024/01/21 10:08:10;;;;;;;8.77;6.95;;;6.00;92.50;;;;;;5065089;28;20040;-76
2024/01/21 10:10:36;;;;;;;9.73;8.00;;;6.20;91.90;;;;;;5068265;28;20622;-74
2024/01/21 10:13:03;;;;;;;9.80;7.63;;;6.10;94.40;;;;;;5034810;28;20068;-74
2024/01/21 10:15:30;;;;;;;9.40;7.85;;;6.10;97.80;;;;;;5051256;28;20048;-75
2024/01/21 10:17:55;;;;;;;15.15;8.15;;;6.20;99.90;;;;;;5061306;28;20040;-74
2024/01/21 10:20:22;;;;;;;8.77;7.25;;;6.20;99.90;;;;;;5050261;28;20036;-75
2024/01/21 10:22:48;;;;;;;10.10;6.90;;;6.30;99.90;;;;;;5050748;28;20044;-74
2024/01/21 10:25:14;;;;;;;9.20;6.72;;;6.20;99.90;;;;;;5067589;28;20035;-74
2024/01/21 10:27:40;;;;;;;8.68;7.13;;;6.30;99.90;;;;;;5050953;28;20056;-74
2024/01/21 10:30:08;;;;;;;9.40;7.13;;;6.50;99.90;;;;;;5064532;28;20048;-74
2024/01/21 10:32:35;;;;;;;12.18;7.32;;;6.50;99.90;;;;;;5067810;28;20040;-74
2024/01/21 10:35:01;;;;;;;15.82;7.90;;;6.60;99.90;;;;;;5067292;28;20044;-74
2024/01/21 10:37:28;;;;;;;10.05;8.25;;;6.70;99.90;;;;;;5033678;28;20036;-75
2024/01/21 10:39:55;;;;;;;10.80;7.75;;;6.70;99.90;;;;;;5048163;28;20033;-75
2024/01/21 10:42:21;;;;;;;10.05;7.75;;;7.20;99.90;;;;;;5029055;28;20033;-74
2024/01/21 10:44:47;;;;;;;12.63;8.27;;;6.90;99.90;;;;;;5031416;28;20040;-74
2024/01/21 10:47:15;;;;;;;12.90;7.70;;;6.90;99.90;;;;;;5056093;28;20028;-75
2024/01/21 10:49:42;;;;;;;9.88;7.78;;;6.90;99.90;;;;;;5050892;28;20036;-75
2024/01/21 10:52:14;;;;;;;10.75;7.78;;;6.90;99.90;;;;;;5066326;28;20040;-75
2024/01/21 10:54:41;;;;;;;12.38;8.35;;;6.90;99.90;;;;;;5062969;28;20532;-75
2024/01/21 10:57:07;;;;;;;9.05;8.13;;;6.90;99.90;;;;;;5050214;28;20127;-74
2024/01/21 10:59:36;;;;;;;9.48;8.05;;;7.00;99.90;;;;;;5066864;28;20198;-74
2024/01/21 11:02:02;;;;;;;9.88;8.73;;;7.00;99.90;;;;;;5067276;28;20044;-74
2024/01/21 11:04:27;;;;;;;11.75;9.02;;;7.10;99.90;;;;;;5067643;28;20044;-75
2024/01/21 11:06:53;;;;;;;10.65;8.68;;;7.10;99.90;;;;;;5064556;28;20047;-76
2024/01/21 11:09:25;;;;;;;10.30;8.43;;;7.10;99.90;;;;;;5067442;28;20063;-74
2024/01/21 11:11:52;;;;;;;11.13;8.13;;;7.10;99.90;;;;;;5067353;28;20063;-73
2024/01/21 11:14:34;;;;;;;10.77;8.60;;;7.00;99.90;;;;;;5050560;28;20078;-75
2024/01/21 11:17:04;;;;;;;12.77;9.25;;;7.10;99.90;;;;;;5058730;28;20037;-75
2024/01/21 11:19:54;;;;;;;11.07;8.95;;;7.20;99.90;;;;;;5058608;28;20052;-75
2024/01/21 11:22:23;;;;;;;10.65;8.23;;;7.20;99.90;;;;;;5065760;28;20057;-75
2024/01/21 11:24:55;;;;;;;11.10;9.15;;;7.20;99.90;;;;;;5028963;28;20044;-75
2024/01/21 11:27:25;;;;;;;9.40;8.40;;;7.20;99.90;;;;;;5086594;28;20056;-75
2024/01/21 11:29:54;;;;;;;11.43;8.60;;;7.30;99.90;;;;;;5065931;28;20582;-75
2024/01/21 11:32:28;;;;;;;15.85;8.82;;;7.30;99.90;;;;;;5049136;28;20040;-76
2024/01/21 11:34:55;;;;;;;9.23;8.18;;;7.30;99.90;;;;;;5066420;28;20048;-77
2024/01/21 11:37:22;;;;;;;8.80;7.90;;;7.20;99.90;;;;;;5066922;28;20055;-73
2024/01/21 11:39:49;;;;;;;10.27;8.07;;;7.30;99.90;;;;;;5055364;28;20040;-73
2024/01/21 11:42:15;;;;;;;10.02;8.43;;;7.20;1.00;;;;;;5072918;28;20041;-74
2024/01/21 11:44:41;;;;;;;10.10;7.97;;;7.30;1.00;;;;;;5058228;28;20059;-74
2024/01/21 11:47:07;;;;;;;11.23;8.77;;;7.30;1.00;;;;;;5050339;28;20064;-74
2024/01/21 11:49:35;;;;;;;10.80;8.82;;;7.30;1.00;;;;;;5055294;28;20041;-74
2024/01/21 11:52:05;;;;;;;9.85;8.77;;;7.30;1.00;;;;;;5035599;28;20079;-74
2024/01/21 11:54:36;;;;;;;10.15;8.77;;;7.50;1.00;;;;;;5063080;28;20041;-74
2024/01/21 11:57:02;;;;;;;9.80;8.55;;;7.50;1.00;;;;;;5037618;28;20093;-74
2024/01/21 11:59:30;;;;;;;9.73;8.40;;;7.50;1.00;;;;;;5064783;28;20048;-75
2024/01/21 12:01:57;;;;;;;13.05;8.93;;;7.50;1.00;;;;;;5066946;28;20048;-74
2024/01/21 12:04:24;;;;;;;11.60;8.70;;;7.50;7.60;;;;;;5067560;28;20525;-74
2024/01/21 12:06:52;;;;;;;11.93;9.43;;;7.40;46.60;;;;;;5066045;28;20056;-74
2024/01/21 12:09:18;;;;;;;11.88;9.65;;;7.40;75.50;;;;;;5064725;28;20373;-75
2024/01/21 12:11:47;;;;;;;11.30;8.73;;;7.60;99.90;;;;;;5058812;28;20251;-75
2024/01/21 12:14:13;;;;;;;10.98;9.13;;;7.60;99.90;;;;;;5066889;28;20398;-75
2024/01/21 12:16:40;;;;;;;11.05;9.25;;;7.60;99.90;;;;;;5049216;28;20087;-75
2024/01/21 12:19:06;;;;;;;11.05;9.20;;;7.50;99.90;;;;;;5063206;28;20067;-75
2024/01/21 12:21:33;;;;;;;10.45;9.18;;;7.50;99.90;;;;;;5065258;28;20076;-75
2024/01/21 12:24:00;;;;;;;12.52;9.07;;;7.50;99.90;;;;;;5045520;28;20059;-75
2024/01/21 12:26:26;;;;;;;14.15;9.27;;;7.50;99.90;;;;;;5061101;28;20051;-76
2024/01/21 12:29:04;;;;;;;11.40;10.15;;;7.30;99.90;;;;;;5032883;28;20045;-75
2024/01/21 12:31:34;;;;;;;12.15;9.65;;;7.40;99.90;;;;;;5066644;28;20044;-75
2024/01/21 12:34:02;;;;;;;13.35;9.88;;;7.30;1.00;;;;;;5066210;28;20063;-75
2024/01/21 12:36:33;;;;;;;10.93;9.07;;;7.40;1.00;;;;;;5065673;28;20467;-76
2024/01/21 12:39:00;;;;;;;12.30;11.00;;;7.50;1.00;;;;;;5058219;28;20070;-75
2024/01/21 12:41:26;;;;;;;12.30;9.52;;;7.30;1.00;;;;;;5036695;28;20041;-77
2024/01/21 12:43:52;;;;;;;11.98;10.57;;;7.30;8.00;;;;;;5078092;28;20048;-76
2024/01/21 12:46:20;;;;;;;12.07;9.55;;;7.40;6.60;;;;;;5061292;28;20045;-75
2024/01/21 12:48:46;;;;;;;11.75;10.05;;;7.40;11.50;;;;;;5057562;28;20033;-75
2024/01/21 12:51:14;;;;;;;12.93;10.32;;;7.40;29.50;;;;;;5056657;28;20071;-76
2024/01/21 12:53:41;;;;;;;13.05;10.30;;;7.50;61.60;;;;;;5059490;28;20137;-76